createdAt,value
2019-01-14T00:01:59.220Z,57.00
2019-01-14T00:04:25.872Z,57.88
2019-01-14T00:06:53.277Z,57.93
2019-01-14T00:09:23.323Z,57.95
2019-01-14T00:11:48.776Z,57.48
2019-01-14T00:14:17.127Z,56.72
2019-01-14T00:16:43.965Z,56.04
2019-01-14T00:19:13.416Z,56.28
2019-01-14T00:21:40.354Z,56.72
2019-01-14T00:24:07.983Z,57.05
2019-01-14T00:26:34.853Z,57.93
2019-01-14T00:29:01.473Z,59.04
2019-01-14T00:31:28.345Z,59.77
2019-01-14T00:33:58.423Z,60.03
2019-01-14T00:36:25.739Z,59.69
2019-01-14T00:38:53.731Z,59.47
2019-01-14T00:41:20.524Z,58.75
2019-01-14T00:46:37.201Z,57.86
2019-01-14T00:49:05.031Z,58.11
2019-01-14T00:51:31.631Z,58.47
2019-01-14T00:54:00.006Z,58.70
2019-01-14T00:56:27.682Z,58.59
2019-01-14T00:58:55.776Z,58.60
2019-01-14T01:01:25.194Z,59.21
2019-01-14T01:03:53.181Z,59.94
2019-01-14T01:06:24.576Z,60.12
2019-01-14T01:08:51.407Z,59.75
2019-01-14T01:11:19.314Z,59.12
2019-01-14T01:13:45.927Z,58.84
2019-01-14T01:16:15.261Z,59.15
2019-01-14T01:18:42.032Z,59.26
2019-01-14T01:21:19.920Z,59.50
2019-01-14T01:23:49.105Z,59.72
2019-01-14T01:26:18.306Z,60.11
2019-01-14T01:28:46.091Z,60.47
2019-01-14T01:34:08.825Z,60.75
2019-01-14T01:36:35.409Z,60.61
2019-01-14T01:39:01.992Z,60.42
2019-01-14T01:41:29.300Z,59.56
2019-01-14T01:43:55.905Z,59.29
2019-01-14T01:46:22.519Z,59.51
2019-01-14T01:48:49.142Z,59.42
2019-01-14T01:51:16.027Z,59.58
2019-01-14T01:53:42.685Z,59.43
2019-01-14T01:56:09.337Z,59.19
2019-01-14T01:58:36.185Z,60.06
2019-01-14T02:01:03.202Z,61.89
2019-01-14T02:03:30.084Z,62.19
2019-01-14T02:05:56.677Z,62.25
2019-01-14T02:08:23.311Z,62.81
2019-01-14T02:10:50.248Z,62.23
2019-01-14T02:13:17.170Z,61.59
2019-01-14T02:15:43.767Z,61.84
2019-01-14T02:18:11.636Z,61.21
2019-01-14T02:20:38.268Z,61.07
2019-01-14T02:23:04.867Z,60.82
2019-01-14T02:25:31.478Z,60.35
2019-01-14T02:27:58.375Z,60.41
2019-01-14T02:30:25.244Z,62.33
2019-01-14T02:32:51.893Z,62.85
2019-01-14T02:35:18.491Z,62.53
2019-01-14T02:37:45.386Z,62.22
2019-01-14T02:40:12.026Z,62.20
2019-01-14T02:42:38.622Z,62.17
2019-01-14T02:45:05.465Z,61.76
2019-01-14T02:47:32.109Z,60.81
2019-01-14T02:49:58.778Z,61.51
2019-01-14T02:52:25.557Z,61.59
2019-01-14T02:54:52.482Z,62.17
2019-01-14T02:57:19.088Z,62.15
2019-01-14T02:59:45.980Z,61.67
2019-01-14T03:02:12.824Z,60.59
2019-01-14T03:04:39.606Z,61.21
2019-01-14T03:07:06.189Z,61.37
2019-01-14T03:09:32.881Z,61.10
2019-01-14T03:11:59.632Z,61.42
2019-01-14T03:14:26.261Z,61.47
2019-01-14T03:16:52.964Z,61.26
2019-01-14T03:19:19.704Z,61.21
2019-01-14T03:21:46.427Z,60.79
2019-01-14T03:24:13.065Z,60.90
2019-01-14T03:26:39.794Z,61.16
2019-01-14T03:29:06.717Z,61.09
2019-01-14T03:31:33.330Z,60.63
2019-01-14T03:33:59.930Z,60.00
2019-01-14T03:36:26.797Z,60.27
2019-01-14T03:38:54.270Z,60.34
2019-01-14T03:41:20.954Z,60.66
2019-01-14T03:43:47.836Z,60.21
2019-01-14T03:46:14.438Z,59.31
2019-01-14T03:48:42.279Z,59.38
2019-01-14T03:51:08.920Z,59.67
2019-01-14T03:53:35.810Z,59.78
2019-01-14T03:56:02.438Z,59.90
2019-01-14T03:58:29.091Z,59.79
2019-01-14T04:00:56.047Z,59.61
2019-01-14T04:03:22.655Z,60.22
2019-01-14T04:05:49.272Z,60.29
2019-01-14T04:08:16.097Z,60.33
2019-01-14T04:10:43.041Z,59.67
2019-01-14T04:13:09.646Z,60.27
2019-01-14T04:15:36.287Z,60.74
2019-01-14T04:18:03.084Z,61.07
2019-01-14T04:20:29.749Z,60.83
2019-01-14T04:23:01.227Z,61.10
2019-01-14T04:25:28.178Z,60.64
2019-01-14T04:27:54.744Z,60.20
2019-01-14T04:30:21.395Z,60.27
2019-01-14T04:32:50.797Z,60.55
2019-01-14T04:35:17.394Z,60.17
2019-01-14T04:37:44.250Z,60.35
2019-01-14T04:40:12.621Z,60.13
2019-01-14T04:42:39.623Z,60.31
2019-01-14T04:45:06.322Z,60.77
2019-01-14T04:47:33.213Z,61.58
2019-01-14T04:49:59.834Z,61.37
2019-01-14T04:52:27.010Z,61.48
2019-01-14T04:54:53.618Z,62.43
2019-01-14T04:57:20.389Z,62.92
2019-01-14T04:59:47.039Z,62.66
2019-01-14T05:02:13.931Z,63.16
2019-01-14T05:04:40.594Z,63.85
2019-01-14T05:07:07.523Z,64.41
2019-01-14T05:09:34.576Z,63.90
2019-01-14T05:12:01.488Z,63.46
2019-01-14T05:14:28.123Z,63.50
2019-01-14T05:16:54.828Z,64.04
2019-01-14T05:19:21.623Z,64.98
2019-01-14T05:21:48.600Z,65.03
2019-01-14T05:24:15.206Z,64.24
2019-01-14T05:26:42.959Z,63.58
2019-01-14T05:29:09.695Z,63.33
2019-01-14T05:31:36.315Z,63.24
2019-01-14T05:34:02.924Z,62.87
2019-01-14T05:36:29.734Z,62.69
2019-01-14T05:38:56.355Z,62.53
2019-01-14T05:41:22.970Z,61.81
2019-01-14T05:43:49.839Z,61.64
2019-01-14T05:46:16.752Z,60.90
2019-01-14T05:48:43.428Z,60.79
2019-01-14T05:51:10.037Z,60.30
2019-01-14T05:53:38.428Z,60.38
2019-01-14T05:56:05.052Z,60.00
2019-01-14T06:01:04.606Z,59.91
2019-01-14T06:03:31.274Z,59.31
2019-01-14T06:05:57.948Z,59.40
2019-01-14T06:08:24.547Z,59.71
2019-01-14T06:10:51.156Z,58.92
2019-01-14T06:13:18.755Z,58.36
2019-01-14T06:15:45.412Z,58.28
2019-01-14T06:18:13.390Z,57.96
2019-01-14T06:20:40.073Z,57.89
2019-01-14T06:23:07.337Z,57.80
2019-01-14T06:25:34.328Z,57.68
2019-01-14T06:28:01.226Z,57.10
2019-01-14T06:30:28.234Z,56.73
2019-01-14T06:32:54.866Z,56.27
2019-01-14T06:35:21.507Z,56.07
2019-01-14T06:37:52.307Z,56.17
2019-01-14T06:40:16.613Z,56.14
2019-01-14T06:42:43.759Z,56.16
2019-01-14T06:45:10.431Z,56.02
2019-01-14T06:47:37.331Z,56.69
2019-01-14T06:50:03.982Z,56.86
2019-01-14T06:52:30.594Z,56.91
2019-01-14T06:54:57.714Z,56.68
2019-01-14T06:57:24.545Z,56.38
2019-01-14T06:59:51.510Z,56.61
2019-01-14T07:02:18.152Z,56.39
2019-01-14T07:04:44.823Z,56.42
2019-01-14T07:07:11.517Z,55.93
2019-01-14T07:09:38.304Z,56.13
2019-01-14T07:12:04.952Z,57.17
2019-01-14T07:14:31.687Z,57.83
2019-01-14T07:16:58.759Z,57.96
2019-01-14T07:19:25.627Z,58.41
2019-01-14T07:21:52.257Z,57.92
2019-01-14T07:24:21.451Z,57.46
2019-01-14T07:26:48.080Z,56.45
2019-01-14T07:29:14.707Z,57.12
2019-01-14T07:31:41.740Z,57.47
2019-01-14T07:34:09.465Z,57.53
2019-01-14T07:36:36.099Z,57.36
2019-01-14T07:39:02.838Z,57.38
2019-01-14T07:41:29.784Z,57.30
2019-01-14T07:43:56.858Z,57.27
2019-01-14T07:46:23.842Z,56.88
2019-01-14T07:48:50.779Z,57.09
2019-01-14T07:51:17.397Z,57.77
2019-01-14T07:53:44.339Z,57.23
2019-01-14T07:56:10.973Z,58.22
2019-01-14T07:58:37.941Z,58.57
2019-01-14T08:01:04.982Z,58.07
2019-01-14T08:03:32.013Z,58.08
2019-01-14T08:05:59.011Z,57.64
2019-01-14T08:08:25.973Z,57.39
2019-01-14T08:10:52.935Z,57.66
2019-01-14T08:13:19.879Z,57.83
2019-01-14T08:15:48.356Z,57.63
2019-01-14T08:18:15.248Z,57.57
2019-01-14T08:20:42.130Z,57.40
2019-01-14T08:23:09.065Z,57.55
2019-01-14T08:25:35.797Z,56.94
2019-01-14T08:28:02.440Z,56.83
2019-01-14T08:30:29.188Z,57.03
2019-01-14T08:32:56.133Z,56.42
2019-01-14T08:35:22.773Z,56.80
2019-01-14T08:37:49.449Z,57.10
2019-01-14T08:40:16.494Z,57.10
2019-01-14T08:42:44.555Z,57.63
2019-01-14T08:45:11.620Z,56.57
2019-01-14T08:47:38.313Z,56.35
2019-01-14T08:50:05.246Z,56.23
2019-01-14T08:52:31.873Z,56.17
2019-01-14T08:54:59.630Z,55.29
2019-01-14T08:57:26.296Z,55.73
2019-01-14T08:59:53.020Z,55.45
2019-01-14T09:02:19.667Z,53.38
2019-01-14T09:04:46.958Z,53.35
2019-01-14T09:07:14.724Z,53.58
2019-01-14T09:09:41.418Z,53.52
2019-01-14T09:12:08.336Z,52.01
2019-01-14T09:14:35.245Z,52.94
2019-01-14T09:17:02.029Z,50.13
2019-01-14T09:19:28.783Z,48.09
2019-01-14T09:21:56.448Z,47.62
2019-01-14T09:24:23.148Z,46.71
2019-01-14T09:26:49.819Z,45.23
2019-01-14T09:29:16.633Z,44.81
2019-01-14T09:31:44.993Z,42.53
2019-01-14T09:34:11.678Z,41.83
2019-01-14T09:36:38.650Z,42.87
2019-01-14T09:39:05.634Z,42.66
2019-01-14T09:41:32.625Z,38.63
2019-01-14T09:43:59.276Z,41.26
2019-01-14T09:46:26.153Z,40.60
2019-01-14T09:48:52.874Z,39.57
2019-01-14T09:51:19.792Z,38.62
2019-01-14T09:53:46.768Z,35.73
2019-01-14T09:56:15.105Z,34.15
2019-01-14T09:58:41.875Z,34.35
2019-01-14T10:01:08.794Z,35.44
2019-01-14T10:03:35.469Z,35.09
2019-01-14T10:06:02.284Z,35.27
2019-01-14T10:08:28.972Z,33.50
2019-01-14T10:10:55.969Z,34.91
2019-01-14T10:13:22.934Z,32.70
2019-01-14T10:15:50.353Z,32.92
2019-01-14T10:18:16.996Z,32.45
2019-01-14T10:20:45.393Z,32.32
2019-01-14T10:23:12.063Z,30.34
2019-01-14T10:25:40.218Z,30.25
2019-01-14T10:28:07.204Z,32.03
2019-01-14T10:30:34.261Z,30.09
2019-01-14T10:33:01.172Z,30.93
2019-01-14T10:35:30.359Z,28.85
2019-01-14T10:37:57.672Z,30.47
2019-01-14T10:40:24.344Z,30.54
2019-01-14T10:42:51.261Z,27.48
2019-01-14T10:45:18.001Z,29.28
2019-01-14T10:47:45.630Z,29.91
2019-01-14T10:50:12.311Z,28.90
2019-01-14T10:52:38.992Z,29.85
2019-01-14T10:55:12.103Z,27.23
2019-01-14T10:57:33.921Z,30.85
2019-01-14T11:00:00.556Z,29.28
2019-01-14T11:02:27.356Z,28.37
2019-01-14T11:04:54.014Z,28.96
2019-01-14T11:07:20.768Z,28.34
2019-01-14T11:09:47.453Z,29.24
2019-01-14T11:12:15.827Z,28.44
2019-01-14T11:14:42.710Z,25.84
2019-01-14T11:17:09.525Z,27.99
2019-01-14T11:19:36.622Z,28.87
2019-01-14T11:22:03.798Z,28.87
2019-01-14T11:24:30.592Z,29.03
2019-01-14T11:26:57.173Z,29.60
2019-01-14T11:29:23.832Z,27.46
2019-01-14T11:31:50.641Z,29.37
2019-01-14T11:34:17.566Z,29.33
2019-01-14T11:36:45.583Z,28.80
2019-01-14T11:39:12.213Z,28.34
2019-01-14T11:41:39.043Z,30.57
2019-01-14T11:44:05.796Z,30.30
2019-01-14T11:46:32.659Z,29.50
2019-01-14T11:48:59.401Z,29.64
2019-01-14T11:51:26.075Z,28.71
2019-01-14T11:53:52.821Z,29.09
2019-01-14T11:56:19.930Z,30.19
2019-01-14T11:58:46.844Z,28.81
2019-01-14T12:01:13.462Z,29.51
2019-01-14T12:03:40.076Z,29.77
2019-01-14T12:06:10.135Z,30.58
2019-01-14T12:08:36.932Z,30.13
2019-01-14T12:11:03.537Z,29.91
2019-01-14T12:13:30.183Z,30.00
2019-01-14T12:15:57.018Z,28.22
2019-01-14T12:18:23.644Z,29.76
2019-01-14T12:20:50.265Z,29.93
2019-01-14T12:23:17.061Z,29.61
2019-01-14T12:25:43.668Z,30.26
2019-01-14T12:28:10.286Z,30.70
2019-01-14T12:30:37.205Z,31.20
2019-01-14T12:33:03.810Z,31.85
2019-01-14T12:35:30.518Z,32.40
2019-01-14T12:37:57.405Z,32.43
2019-01-14T12:40:25.295Z,33.54
2019-01-14T12:42:52.245Z,33.80
2019-01-14T12:45:18.893Z,33.20
2019-01-14T12:47:46.719Z,33.63
2019-01-14T12:50:13.454Z,33.26
2019-01-14T12:52:40.061Z,33.00
2019-01-14T12:55:06.656Z,34.65
2019-01-14T12:57:33.868Z,34.30
2019-01-14T13:00:01.956Z,34.49
2019-01-14T13:02:28.623Z,33.89
2019-01-14T13:04:55.297Z,34.10
2019-01-14T13:07:22.280Z,33.42
2019-01-14T13:09:48.819Z,34.11
2019-01-14T13:12:17.054Z,34.63
2019-01-14T13:14:43.775Z,34.42
2019-01-14T13:17:11.192Z,34.78
2019-01-14T13:19:37.877Z,34.51
2019-01-14T13:22:05.088Z,34.25
2019-01-14T13:24:31.839Z,34.38
2019-01-14T13:26:58.991Z,34.50
2019-01-14T13:29:25.856Z,35.08
2019-01-14T13:31:52.791Z,34.59
2019-01-14T13:34:19.405Z,35.08
2019-01-14T13:36:47.172Z,35.59
2019-01-14T13:39:13.860Z,35.28
2019-01-14T13:41:40.457Z,34.56
2019-01-14T13:44:07.127Z,34.81
2019-01-14T13:46:33.961Z,34.42
2019-01-14T13:49:00.672Z,34.02
2019-01-14T13:51:27.289Z,32.40
2019-01-14T13:53:54.002Z,33.74
2019-01-14T13:56:21.231Z,33.80
2019-01-14T13:58:48.041Z,34.02
2019-01-14T14:01:14.813Z,33.55
2019-01-14T14:03:41.503Z,33.43
2019-01-14T14:06:08.272Z,33.82
2019-01-14T14:08:35.234Z,33.92
2019-01-14T14:11:01.844Z,33.75
2019-01-14T14:13:29.289Z,33.55
2019-01-14T14:15:55.926Z,34.04
2019-01-14T14:18:22.697Z,33.63
2019-01-14T14:20:49.349Z,33.32
2019-01-14T14:23:17.809Z,33.19
2019-01-14T14:25:44.465Z,33.17
2019-01-14T14:28:11.728Z,32.42
2019-01-14T14:30:39.462Z,32.79
2019-01-14T14:33:06.495Z,32.46
2019-01-14T14:35:33.124Z,32.68
2019-01-14T14:38:01.166Z,32.01
2019-01-14T14:40:28.180Z,32.63
2019-01-14T14:42:54.773Z,32.76
2019-01-14T14:45:21.883Z,32.35
2019-01-14T14:47:48.844Z,32.67
2019-01-14T14:50:15.644Z,32.11
2019-01-14T14:52:42.367Z,32.08
2019-01-14T14:55:09.084Z,32.82
2019-01-14T14:57:42.822Z,33.07
2019-01-14T15:00:09.679Z,32.89
2019-01-14T15:02:40.846Z,32.98
2019-01-14T15:05:09.118Z,32.72
2019-01-14T15:07:38.207Z,32.66
2019-01-14T15:10:08.651Z,32.66
2019-01-14T15:12:38.493Z,32.85
2019-01-14T15:15:05.199Z,33.33
2019-01-14T15:33:10.546Z,33.11
2019-01-14T15:35:37.176Z,33.20
2019-01-14T15:38:03.942Z,34.02
2019-01-14T15:40:30.633Z,33.81
2019-01-14T15:42:57.232Z,34.15
2019-01-14T15:45:24.066Z,33.89
2019-01-14T15:47:50.717Z,34.14
2019-01-14T15:50:18.534Z,34.22
2019-01-14T15:52:45.174Z,33.96
2019-01-14T15:55:11.829Z,34.47
2019-01-14T15:57:38.438Z,34.20
2019-01-14T16:00:05.449Z,34.49
2019-01-14T16:02:32.313Z,34.46
2019-01-14T16:04:59.204Z,34.82
2019-01-14T16:07:25.812Z,35.18
2019-01-14T16:09:52.544Z,35.04
2019-01-14T16:12:19.356Z,35.19
2019-01-14T16:14:45.954Z,34.99
2019-01-14T16:17:12.628Z,34.87
2019-01-14T16:19:55.049Z,34.97
2019-01-14T16:22:22.639Z,35.31
2019-01-14T16:24:49.479Z,35.97
2019-01-14T16:27:16.849Z,36.14
2019-01-14T16:29:44.908Z,36.09
2019-01-14T16:32:11.546Z,38.38
2019-01-14T16:34:38.408Z,39.78
2019-01-14T16:37:05.000Z,41.13
2019-01-14T16:39:31.908Z,42.24
2019-01-14T16:41:58.537Z,42.35
2019-01-14T16:44:25.156Z,41.84
2019-01-14T16:46:53.208Z,41.43
2019-01-14T16:49:21.354Z,41.93
2019-01-14T16:51:51.969Z,42.90
2019-01-14T16:54:29.437Z,42.49
2019-01-14T16:56:56.032Z,43.18
2019-01-14T16:59:30.065Z,42.99
2019-01-14T17:01:56.438Z,43.07
2019-01-14T17:04:23.056Z,44.25
2019-01-14T17:06:49.875Z,44.08
2019-01-14T17:09:16.711Z,43.62
2019-01-14T17:11:43.369Z,43.50
2019-01-14T17:14:09.997Z,43.21
2019-01-14T17:16:37.488Z,43.48
2019-01-14T17:19:05.371Z,43.63
2019-01-14T17:21:42.372Z,43.35
2019-01-14T17:24:09.462Z,43.06
2019-01-14T17:26:39.724Z,42.95
2019-01-14T17:29:17.177Z,42.72
2019-01-14T17:31:44.095Z,43.34
2019-01-14T17:34:12.887Z,43.64
2019-01-14T17:36:39.257Z,44.06
2019-01-14T17:39:08.181Z,43.66
2019-01-14T17:41:34.981Z,43.12
2019-01-14T17:44:01.572Z,43.25
2019-01-14T17:46:29.396Z,42.19
2019-01-14T17:48:57.010Z,41.76
2019-01-14T17:51:35.869Z,41.41
2019-01-14T17:54:03.141Z,41.28
2019-01-14T17:56:30.411Z,41.12
2019-01-14T17:58:57.271Z,41.16
2019-01-14T18:01:23.922Z,40.73
2019-01-14T18:03:51.723Z,40.47
2019-01-14T18:06:23.441Z,40.20
2019-01-14T18:08:51.232Z,39.90
2019-01-14T18:11:19.061Z,39.78
2019-01-14T18:13:45.667Z,39.92
2019-01-14T18:16:12.531Z,39.70
2019-01-14T18:18:39.125Z,39.68
2019-01-14T18:21:13.286Z,39.81
2019-01-14T18:23:34.057Z,39.90
2019-01-14T18:26:00.683Z,40.21
2019-01-14T18:28:27.852Z,40.87
2019-01-14T18:31:09.384Z,42.30
2019-01-14T18:33:40.330Z,42.90
2019-01-14T18:36:07.655Z,43.67
2019-01-14T18:38:34.267Z,43.59
2019-01-14T18:41:00.865Z,43.29
2019-01-14T18:43:27.699Z,43.32
2019-01-14T18:45:54.666Z,43.31
2019-01-14T18:48:21.290Z,43.74
2019-01-14T18:50:48.909Z,43.80
2019-01-14T18:53:15.849Z,44.17
2019-01-14T18:55:42.974Z,44.32
2019-01-14T18:58:13.169Z,44.13
2019-01-14T19:00:47.986Z,44.09
2019-01-14T19:03:14.857Z,44.18
2019-01-14T19:05:41.465Z,44.37
2019-01-14T19:08:08.131Z,44.63
2019-01-14T19:10:36.044Z,44.55
2019-01-14T19:13:04.142Z,44.56
2019-01-14T19:15:31.514Z,44.83
2019-01-14T19:17:58.116Z,44.93
2019-01-14T19:20:25.386Z,45.12
2019-01-14T19:22:52.064Z,45.06
2019-01-14T19:25:20.378Z,45.38
2019-01-14T19:27:47.044Z,45.06
2019-01-14T19:30:14.602Z,45.13
2019-01-14T19:32:44.219Z,45.26
2019-01-14T19:35:12.522Z,45.67
2019-01-14T19:37:39.737Z,45.97
2019-01-14T19:42:54.825Z,44.64
2019-01-14T19:45:21.398Z,44.58
2019-01-14T19:47:48.214Z,44.85
2019-01-14T19:50:18.593Z,47.44
2019-01-14T19:52:46.641Z,49.61
2019-01-14T19:55:13.258Z,52.08
2019-01-14T19:57:40.765Z,53.88
2019-01-14T20:00:09.469Z,53.77
2019-01-14T20:02:36.318Z,53.59
2019-01-14T20:05:03.222Z,52.91
2019-01-14T20:07:32.611Z,52.84
2019-01-14T20:10:01.487Z,53.17
2019-01-14T20:12:28.437Z,52.79
2019-01-14T20:14:57.363Z,53.62
2019-01-14T20:17:27.369Z,53.64
2019-01-14T20:19:54.059Z,54.85
2019-01-14T20:22:20.986Z,54.50
2019-01-14T20:24:47.618Z,53.99
2019-01-14T20:27:14.264Z,54.20
2019-01-14T20:29:40.847Z,54.63
2019-01-14T20:32:07.623Z,53.59
2019-01-14T20:34:34.256Z,52.83
2019-01-14T20:37:01.011Z,52.70
2019-01-14T20:39:27.735Z,52.75
2019-01-14T20:41:54.636Z,52.43
2019-01-14T20:44:21.270Z,52.85
2019-01-14T20:46:47.962Z,53.09
2019-01-14T20:49:14.869Z,53.94
2019-01-14T20:54:28.857Z,55.28
2019-01-14T20:56:55.563Z,54.20
2019-01-14T20:59:22.139Z,53.05
2019-01-14T21:01:50.193Z,53.10
2019-01-14T21:04:16.987Z,52.79
2019-01-14T21:06:43.874Z,52.67
2019-01-14T21:09:10.495Z,52.78
2019-01-14T21:11:39.900Z,50.79
2019-01-14T21:14:06.638Z,50.73
2019-01-14T21:16:33.173Z,50.72
2019-01-14T21:19:00.072Z,50.55
2019-01-14T21:21:37.407Z,50.50
2019-01-14T21:24:04.044Z,49.94
2019-01-14T21:26:30.663Z,49.94
2019-01-14T21:28:57.271Z,50.35
2019-01-14T21:31:34.683Z,50.44
2019-01-14T21:34:01.331Z,50.40
2019-01-14T21:36:28.160Z,49.93
2019-01-14T21:38:54.781Z,52.57
2019-01-14T21:41:31.020Z,53.59
2019-01-14T21:43:52.714Z,54.16
2019-01-14T21:46:19.334Z,54.12
2019-01-14T21:48:46.233Z,54.28
2019-01-14T21:51:12.816Z,54.24
2019-01-14T21:53:39.462Z,54.88
2019-01-14T21:56:06.362Z,54.67
2019-01-14T21:58:32.929Z,54.50
2019-01-14T22:00:59.513Z,54.29
2019-01-14T22:03:26.591Z,54.11
2019-01-14T22:05:54.659Z,53.93
2019-01-14T22:08:21.820Z,53.94
2019-01-14T22:10:48.454Z,53.82
2019-01-14T22:13:15.080Z,54.15
2019-01-14T22:15:41.705Z,54.44
2019-01-14T22:18:08.634Z,54.90
2019-01-14T22:20:35.543Z,54.85
2019-01-14T22:23:02.150Z,54.72
2019-01-14T22:25:28.859Z,54.89
2019-01-14T22:27:55.630Z,54.42
2019-01-14T22:30:22.211Z,54.51
2019-01-14T22:32:48.873Z,54.37
2019-01-14T22:35:15.720Z,54.42
2019-01-14T22:37:42.583Z,54.50
2019-01-14T22:40:09.146Z,54.26
2019-01-14T22:42:35.734Z,54.79
2019-01-14T22:45:02.393Z,54.90
2019-01-14T22:47:28.991Z,54.45
2019-01-14T22:49:55.798Z,54.20
2019-01-14T22:52:33.165Z,54.07
2019-01-14T22:54:59.839Z,53.90
2019-01-14T22:57:26.502Z,53.97
2019-01-14T22:59:53.105Z,53.65
2019-01-14T23:02:23.003Z,53.48
2019-01-14T23:04:49.909Z,53.30
2019-01-14T23:07:16.686Z,53.42
2019-01-14T23:09:43.319Z,53.55
2019-01-14T23:12:20.258Z,53.70
2019-01-14T23:14:47.012Z,53.99
2019-01-14T23:17:13.623Z,53.91
2019-01-14T23:19:40.243Z,53.86
2019-01-14T23:24:53.126Z,54.03
2019-01-14T23:27:19.754Z,54.15
2019-01-14T23:29:46.393Z,54.20
2019-01-14T23:32:14.262Z,53.82
2019-01-14T23:34:41.184Z,53.87
2019-01-14T23:37:07.892Z,53.88
2019-01-14T23:39:34.505Z,54.07
2019-01-14T23:42:01.232Z,54.62
2019-01-14T23:44:27.876Z,54.37
2019-01-14T23:46:54.516Z,54.11
2019-01-14T23:49:22.747Z,55.25
2019-01-14T23:51:49.325Z,55.34
2019-01-14T23:56:48.443Z,55.00
2019-01-14T23:59:15.393Z,55.24
